sensor_id;sensor_type;location;lat;lon;timestamp;pressure;altitude;pressure_sealevel;temperature;humidity
6680;BME280;3376;42.664;23.346;2023-04-10T18:24:54;94484.97;;;9.03;100.00
6680;BME280;3376;42.664;23.346;2023-04-10T18:27:21;94481.28;;;8.97;100.00
6680;BME280;3376;42.664;23.346;2023-04-10T18:29:47;94487.25;;;8.98;100.00
6680;BME280;3376;42.664;23.346;2023-04-10T18:32:14;94484.50;;;8.99;100.00
6680;BME280;3376;42.664;23.346;2023-04-10T18:34:41;94488.50;;;9.02;100.00
6680;BME280;3376;42.664;23.346;2023-04-10T18:37:08;94490.91;;;9.03;100.00
6680;BME280;3376;42.664;23.346;2023-04-10T18:39:34;94493.69;;;9.02;100.00
6680;BME280;3376;42.664;23.346;2023-04-10T18:42:05;94485.09;;;9.09;100.00
6680;BME280;3376;42.664;23.346;2023-04-10T18:44:34;94485.94;;;9.02;100.00
6680;BME280;3376;42.664;23.346;2023-04-10T18:47:02;94462.75;;;8.86;100.00
6680;BME280;3376;42.664;23.346;2023-04-10T18:49:29;94492.03;;;9.09;100.00
6680;BME280;3376;42.664;23.346;2023-04-10T18:51:56;94491.88;;;9.18;100.00
6680;BME280;3376;42.664;23.346;2023-04-10T18:54:23;94457.59;;;8.86;100.00
6680;BME280;3376;42.664;23.346;2023-04-10T18:56:51;94491.41;;;9.07;100.00
6680;BME280;3376;42.664;23.346;2023-04-10T18:59:19;94483.69;;;8.99;100.00
6680;BME280;3376;42.664;23.346;2023-04-10T19:01:46;94481.56;;;9.02;100.00
6680;BME280;3376;42.664;23.346;2023-04-10T19:04:12;94499.78;;;9.17;100.00
6680;BME280;3376;42.664;23.346;2023-04-10T19:06:39;94486.75;;;9.02;100.00
6680;BME280;3376;42.664;23.346;2023-04-10T19:09:08;94490.78;;;8.97;100.00
6680;BME280;3376;42.664;23.346;2023-04-10T19:11:34;94492.72;;;8.95;100.00
6680;BME280;3376;42.664;23.346;2023-04-10T19:14:01;94464.88;;;8.66;100.00
6680;BME280;3376;42.664;23.346;2023-04-10T19:16:30;94488.59;;;8.70;100.00
6680;BME280;3376;42.664;23.346;2023-04-10T19:18:57;94488.81;;;8.60;100.00
6680;BME280;3376;42.664;23.346;2023-04-10T19:21:25;94501.72;;;8.60;100.00
6680;BME280;3376;42.664;23.346;2023-04-10T19:23:52;94409.66;;;7.72;100.00
6680;BME280;3376;42.664;23.346;2023-04-10T19:26:19;94480.56;;;7.84;100.00
6680;BME280;3376;42.664;23.346;2023-04-10T19:28:46;94455.53;;;7.53;100.00
6680;BME280;3376;42.664;23.346;2023-04-10T19:31:13;94490.69;;;7.62;100.00
6680;BME280;3376;42.664;23.346;2023-04-10T19:33:41;94495.34;;;7.66;100.00
6680;BME280;3376;42.664;23.346;2023-04-10T19:36:08;94450.06;;;7.48;100.00
6680;BME280;3376;42.664;23.346;2023-04-10T19:38:35;94482.63;;;7.57;100.00
6680;BME280;3376;42.664;23.346;2023-04-10T19:41:11;94483.72;;;7.46;100.00
6680;BME280;3376;42.664;23.346;2023-04-10T19:43:39;94471.31;;;7.42;100.00
6680;BME280;3376;42.664;23.346;2023-04-10T19:46:05;94470.81;;;7.30;100.00
6680;BME280;3376;42.664;23.346;2023-04-10T19:48:32;94477.91;;;7.36;100.00
6680;BME280;3376;42.664;23.346;2023-04-10T19:51:03;94477.75;;;7.38;100.00
6680;BME280;3376;42.664;23.346;2023-04-10T19:53:30;94467.88;;;7.25;100.00
6680;BME280;3376;42.664;23.346;2023-04-10T19:55:57;94474.81;;;7.25;100.00
6680;BME280;3376;42.664;23.346;2023-04-10T19:58:24;94459.28;;;7.08;100.00
6680;BME280;3376;42.664;23.346;2023-04-10T20:00:51;94462.59;;;7.27;100.00
6680;BME280;3376;42.664;23.346;2023-04-10T20:03:19;94451.78;;;7.23;100.00
6680;BME280;3376;42.664;23.346;2023-04-10T20:05:51;94441.66;;;7.22;100.00
6680;BME280;3376;42.664;23.346;2023-04-10T20:08:19;94431.13;;;7.15;100.00
6680;BME280;3376;42.664;23.346;2023-04-10T20:10:45;94439.09;;;7.30;100.00
6680;BME280;3376;42.664;23.346;2023-04-10T20:13:12;94441.53;;;7.47;100.00
6680;BME280;3376;42.664;23.346;2023-04-10T20:15:39;94432.50;;;7.51;100.00
6680;BME280;3376;42.664;23.346;2023-04-10T20:18:06;94428.31;;;7.66;100.00
6680;BME280;3376;42.664;23.346;2023-04-10T20:20:32;94433.19;;;7.77;100.00
6680;BME280;3376;42.664;23.346;2023-04-10T20:22:59;94421.56;;;7.73;100.00
6680;BME280;3376;42.664;23.346;2023-04-10T20:25:27;94403.19;;;7.68;100.00
6680;BME280;3376;42.664;23.346;2023-04-10T20:27:54;94424.50;;;7.86;100.00
6680;BME280;3376;42.664;23.346;2023-04-10T20:30:21;94422.06;;;7.93;100.00
6680;BME280;3376;42.664;23.346;2023-04-10T20:32:48;94420.28;;;8.01;100.00
6680;BME280;3376;42.664;23.346;2023-04-10T20:35:14;94417.06;;;8.15;100.00
6680;BME280;3376;42.664;23.346;2023-04-10T20:37:41;94412.69;;;8.16;100.00
6680;BME280;3376;42.664;23.346;2023-04-10T20:40:09;94429.97;;;8.15;100.00
6680;BME280;3376;42.664;23.346;2023-04-10T20:42:37;94418.31;;;8.19;100.00
6680;BME280;3376;42.664;23.346;2023-04-10T20:45:04;94427.06;;;8.35;100.00
6680;BME280;3376;42.664;23.346;2023-04-10T20:47:31;94417.53;;;8.43;100.00
6680;BME280;3376;42.664;23.346;2023-04-10T20:49:58;94408.28;;;8.49;100.00
6680;BME280;3376;42.664;23.346;2023-04-10T20:52:25;94418.63;;;8.49;100.00
6680;BME280;3376;42.664;23.346;2023-04-10T20:54:52;94405.09;;;8.39;100.00
6680;BME280;3376;42.664;23.346;2023-04-10T20:57:18;94420.09;;;8.43;100.00
6680;BME280;3376;42.664;23.346;2023-04-10T20:59:47;94418.94;;;8.46;100.00
6680;BME280;3376;42.664;23.346;2023-04-10T21:02:14;94422.81;;;8.50;100.00
6680;BME280;3376;42.664;23.346;2023-04-10T21:04:42;94436.38;;;8.44;100.00
6680;BME280;3376;42.664;23.346;2023-04-10T21:07:08;94424.13;;;8.38;100.00
6680;BME280;3376;42.664;23.346;2023-04-10T21:09:35;94435.72;;;8.42;100.00
6680;BME280;3376;42.664;23.346;2023-04-10T21:12:03;94436.72;;;8.41;100.00
6680;BME280;3376;42.664;23.346;2023-04-10T21:14:29;94438.00;;;8.37;100.00
6680;BME280;3376;42.664;23.346;2023-04-10T21:16:57;94435.41;;;8.37;100.00
6680;BME280;3376;42.664;23.346;2023-04-10T21:19:24;94421.56;;;8.38;100.00
6680;BME280;3376;42.664;23.346;2023-04-10T21:21:51;94429.94;;;8.40;100.00
6680;BME280;3376;42.664;23.346;2023-04-10T21:24:18;94418.13;;;8.53;100.00
6680;BME280;3376;42.664;23.346;2023-04-10T21:26:44;94412.13;;;8.61;100.00
6680;BME280;3376;42.664;23.346;2023-04-10T21:29:11;94419.78;;;8.85;100.00
6680;BME280;3376;42.664;23.346;2023-04-10T21:31:38;94426.47;;;8.71;100.00
6680;BME280;3376;42.664;23.346;2023-04-10T21:34:06;94413.28;;;8.58;100.00
6680;BME280;3376;42.664;23.346;2023-04-10T21:36:33;94414.41;;;8.56;100.00
6680;BME280;3376;42.664;23.346;2023-04-10T21:39:00;94407.53;;;8.32;100.00
6680;BME280;3376;42.664;23.346;2023-04-10T21:41:26;94414.97;;;8.27;100.00
6680;BME280;3376;42.664;23.346;2023-04-10T21:43:53;94412.38;;;8.19;100.00
6680;BME280;3376;42.664;23.346;2023-04-10T21:46:20;94414.94;;;8.11;100.00
6680;BME280;3376;42.664;23.346;2023-04-10T21:48:47;94370.03;;;7.81;100.00
6680;BME280;3376;42.664;23.346;2023-04-10T21:51:15;94406.25;;;7.96;100.00
6680;BME280;3376;42.664;23.346;2023-04-10T21:53:42;94400.31;;;7.79;100.00
6680;BME280;3376;42.664;23.346;2023-04-10T21:56:09;94407.38;;;7.85;100.00
6680;BME280;3376;42.664;23.346;2023-04-10T21:58:35;94399.97;;;7.82;100.00
6680;BME280;3376;42.664;23.346;2023-04-10T22:01:03;94391.94;;;7.93;100.00
6680;BME280;3376;42.664;23.346;2023-04-10T22:03:31;94398.88;;;7.85;100.00
6680;BME280;3376;42.664;23.346;2023-04-10T22:05:58;94393.22;;;7.73;100.00
6680;BME280;3376;42.664;23.346;2023-04-10T22:08:26;94390.81;;;7.64;100.00
6680;BME280;3376;42.664;23.346;2023-04-10T22:10:53;94373.25;;;7.59;100.00
6680;BME280;3376;42.664;23.346;2023-04-10T22:13:20;94352.13;;;7.48;100.00
6680;BME280;3376;42.664;23.346;2023-04-10T22:15:47;94361.00;;;7.53;100.00
6680;BME280;3376;42.664;23.346;2023-04-10T22:18:14;94377.25;;;7.62;100.00
6680;BME280;3376;42.664;23.346;2023-04-10T22:20:41;94378.41;;;7.59;100.00
6680;BME280;3376;42.664;23.346;2023-04-10T22:23:08;94369.38;;;7.63;100.00
6680;BME280;3376;42.664;23.346;2023-04-10T22:25:36;94363.06;;;7.58;100.00
6680;BME280;3376;42.664;23.346;2023-04-10T22:28:03;94372.28;;;7.52;100.00
6680;BME280;3376;42.664;23.346;2023-04-10T22:30:30;94376.63;;;7.60;100.00
6680;BME280;3376;42.664;23.346;2023-04-10T22:32:56;94369.19;;;7.65;100.00
6680;BME280;3376;42.664;23.346;2023-04-10T22:35:23;94359.06;;;7.55;100.00
6680;BME280;3376;42.664;23.346;2023-04-10T22:37:50;94367.13;;;7.60;100.00
6680;BME280;3376;42.664;23.346;2023-04-10T22:40:17;94370.81;;;7.58;100.00
6680;BME280;3376;42.664;23.346;2023-04-10T22:42:45;94368.41;;;7.64;100.00
6680;BME280;3376;42.664;23.346;2023-04-10T22:45:13;94376.97;;;7.73;100.00
6680;BME280;3376;42.664;23.346;2023-04-10T22:47:40;94362.28;;;7.65;100.00
6680;BME280;3376;42.664;23.346;2023-04-10T22:50:07;94364.88;;;7.57;100.00
6680;BME280;3376;42.664;23.346;2023-04-10T22:52:34;94368.91;;;7.68;100.00
6680;BME280;3376;42.664;23.346;2023-04-10T22:55:00;94357.13;;;7.57;100.00
6680;BME280;3376;42.664;23.346;2023-04-10T22:57:27;94348.25;;;7.60;100.00
6680;BME280;3376;42.664;23.346;2023-04-10T22:59:55;94368.38;;;7.80;100.00
6680;BME280;3376;42.664;23.346;2023-04-10T23:02:22;94364.84;;;7.89;100.00
6680;BME280;3376;42.664;23.346;2023-04-10T23:04:49;94351.63;;;7.84;100.00
6680;BME280;3376;42.664;23.346;2023-04-10T23:07:16;94365.81;;;7.96;100.00
6680;BME280;3376;42.664;23.346;2023-04-10T23:09:42;94365.16;;;7.94;100.00
6680;BME280;3376;42.664;23.346;2023-04-10T23:12:09;94367.75;;;7.94;100.00
6680;BME280;3376;42.664;23.346;2023-04-10T23:14:36;94365.00;;;7.96;100.00
6680;BME280;3376;42.664;23.346;2023-04-10T23:17:04;94364.53;;;8.00;100.00
6680;BME280;3376;42.664;23.346;2023-04-10T23:19:31;94359.97;;;8.02;100.00
6680;BME280;3376;42.664;23.346;2023-04-10T23:21:57;94353.22;;;8.01;100.00
6680;BME280;3376;42.664;23.346;2023-04-10T23:24:24;94351.63;;;7.92;100.00
6680;BME280;3376;42.664;23.346;2023-04-10T23:26:51;94349.38;;;7.89;100.00
6680;BME280;3376;42.664;23.346;2023-04-10T23:29:18;94348.72;;;7.95;100.00
6680;BME280;3376;42.664;23.346;2023-04-10T23:31:44;94327.47;;;7.77;100.00
6680;BME280;3376;42.664;23.346;2023-04-10T23:34:12;94340.84;;;7.97;100.00
6680;BME280;3376;42.664;23.346;2023-04-10T23:36:39;94335.03;;;7.95;100.00
6680;BME280;3376;42.664;23.346;2023-04-10T23:39:06;94243.13;;;7.31;100.00
6680;BME280;3376;42.664;23.346;2023-04-10T23:41:33;94326.03;;;7.83;100.00
6680;BME280;3376;42.664;23.346;2023-04-10T23:44:00;94330.19;;;7.84;100.00
6680;BME280;3376;42.664;23.346;2023-04-10T23:46:27;94311.69;;;7.72;100.00
6680;BME280;3376;42.664;23.346;2023-04-10T23:48:53;94321.81;;;7.82;100.00
6680;BME280;3376;42.664;23.346;2023-04-10T23:51:22;94310.06;;;7.79;100.00
6680;BME280;3376;42.664;23.346;2023-04-10T23:53:49;94306.56;;;7.64;100.00
6680;BME280;3376;42.664;23.346;2023-04-10T23:56:15;94311.34;;;7.75;100.00
6680;BME280;3376;42.664;23.346;2023-04-10T23:58:42;94302.19;;;7.73;100.00
